sensor_id;sensor_type;location;lat;lon;timestamp;P1;durP1;ratioP1;P2;durP2;ratioP2
10166;SDS011;62970;53.130;8.244;2023-03-01T00:00:22;16.90;;;12.70;;
10166;SDS011;62970;53.130;8.244;2023-03-01T00:02:54;16.00;;;12.90;;
10166;SDS011;62970;53.130;8.244;2023-03-01T00:05:23;18.50;;;13.60;;
10166;SDS011;62970;53.130;8.244;2023-03-01T00:07:53;18.13;;;13.43;;
10166;SDS011;62970;53.130;8.244;2023-03-01T00:10:22;16.20;;;12.73;;
10166;SDS011;62970;53.130;8.244;2023-03-01T00:12:52;15.60;;;12.00;;
10166;SDS011;62970;53.130;8.244;2023-03-01T00:15:21;14.70;;;12.33;;
10166;SDS011;62970;53.130;8.244;2023-03-01T00:17:53;17.00;;;13.07;;
10166;SDS011;62970;53.130;8.244;2023-03-01T00:20:22;15.53;;;12.30;;
10166;SDS011;62970;53.130;8.244;2023-03-01T00:22:52;16.23;;;12.77;;
10166;SDS011;62970;53.130;8.244;2023-03-01T00:25:21;15.63;;;11.77;;
10166;SDS011;62970;53.130;8.244;2023-03-01T00:27:50;15.80;;;12.70;;
10166;SDS011;62970;53.130;8.244;2023-03-01T00:30:20;17.57;;;13.10;;
10166;SDS011;62970;53.130;8.244;2023-03-01T00:32:49;14.23;;;11.93;;
10166;SDS011;62970;53.130;8.244;2023-03-01T00:35:21;16.30;;;12.87;;
10166;SDS011;62970;53.130;8.244;2023-03-01T00:37:51;16.77;;;12.53;;
10166;SDS011;62970;53.130;8.244;2023-03-01T00:40:23;16.67;;;12.73;;
10166;SDS011;62970;53.130;8.244;2023-03-01T00:42:52;16.43;;;12.60;;
10166;SDS011;62970;53.130;8.244;2023-03-01T00:45:21;16.17;;;13.03;;
10166;SDS011;62970;53.130;8.244;2023-03-01T00:47:52;17.90;;;13.23;;
10166;SDS011;62970;53.130;8.244;2023-03-01T00:50:24;17.80;;;14.07;;
10166;SDS011;62970;53.130;8.244;2023-03-01T00:52:53;19.53;;;15.57;;
10166;SDS011;62970;53.130;8.244;2023-03-01T00:55:23;20.33;;;16.10;;
10166;SDS011;62970;53.130;8.244;2023-03-01T00:57:53;18.40;;;15.07;;
10166;SDS011;62970;53.130;8.244;2023-03-01T01:00:22;20.23;;;15.40;;
10166;SDS011;62970;53.130;8.244;2023-03-01T01:02:53;17.27;;;13.83;;
10166;SDS011;62970;53.130;8.244;2023-03-01T01:05:24;18.63;;;14.93;;
10166;SDS011;62970;53.130;8.244;2023-03-01T01:07:54;19.50;;;15.30;;
10166;SDS011;62970;53.130;8.244;2023-03-01T01:10:23;21.87;;;16.97;;
10166;SDS011;62970;53.130;8.244;2023-03-01T01:12:52;27.67;;;18.07;;
10166;SDS011;62970;53.130;8.244;2023-03-01T01:15:21;24.10;;;16.50;;
10166;SDS011;62970;53.130;8.244;2023-03-01T01:17:51;24.30;;;17.33;;
10166;SDS011;62970;53.130;8.244;2023-03-01T01:20:20;23.77;;;17.27;;
10166;SDS011;62970;53.130;8.244;2023-03-01T01:22:52;24.87;;;16.83;;
10166;SDS011;62970;53.130;8.244;2023-03-01T01:25:22;25.80;;;17.00;;
10166;SDS011;62970;53.130;8.244;2023-03-01T01:27:51;26.10;;;17.70;;
10166;SDS011;62970;53.130;8.244;2023-03-01T01:30:21;22.40;;;16.60;;
10166;SDS011;62970;53.130;8.244;2023-03-01T01:32:50;22.20;;;16.53;;
10166;SDS011;62970;53.130;8.244;2023-03-01T01:35:20;22.33;;;15.90;;
10166;SDS011;62970;53.130;8.244;2023-03-01T01:37:52;21.23;;;16.10;;
10166;SDS011;62970;53.130;8.244;2023-03-01T01:40:21;21.83;;;15.40;;
10166;SDS011;62970;53.130;8.244;2023-03-01T01:42:50;21.47;;;15.50;;
10166;SDS011;62970;53.130;8.244;2023-03-01T01:45:34;22.10;;;15.60;;
10166;SDS011;62970;53.130;8.244;2023-03-01T01:48:06;23.60;;;15.50;;
10166;SDS011;62970;53.130;8.244;2023-03-01T01:50:41;18.13;;;14.57;;
10166;SDS011;62970;53.130;8.244;2023-03-01T01:53:16;21.80;;;13.97;;
10166;SDS011;62970;53.130;8.244;2023-03-01T01:55:48;17.53;;;13.73;;
10166;SDS011;62970;53.130;8.244;2023-03-01T01:58:24;17.10;;;13.20;;
10166;SDS011;62970;53.130;8.244;2023-03-01T02:00:56;16.97;;;13.20;;
10166;SDS011;62970;53.130;8.244;2023-03-01T02:03:27;17.43;;;13.27;;
10166;SDS011;62970;53.130;8.244;2023-03-01T02:06:03;17.10;;;12.73;;
10166;SDS011;62970;53.130;8.244;2023-03-01T02:08:42;16.17;;;12.43;;
10166;SDS011;62970;53.130;8.244;2023-03-01T02:11:14;16.63;;;13.03;;
10166;SDS011;62970;53.130;8.244;2023-03-01T02:13:46;16.33;;;12.13;;
10166;SDS011;62970;53.130;8.244;2023-03-01T02:16:16;15.40;;;12.20;;
10166;SDS011;62970;53.130;8.244;2023-03-01T02:18:46;15.43;;;12.57;;
10166;SDS011;62970;53.130;8.244;2023-03-01T02:24:14;15.60;;;12.50;;
10166;SDS011;62970;53.130;8.244;2023-03-01T02:26:59;16.17;;;11.87;;
10166;SDS011;62970;53.130;8.244;2023-03-01T02:29:32;14.00;;;11.27;;
10166;SDS011;62970;53.130;8.244;2023-03-01T02:32:02;16.47;;;12.67;;
10166;SDS011;62970;53.130;8.244;2023-03-01T02:34:29;13.73;;;11.83;;
10166;SDS011;62970;53.130;8.244;2023-03-01T02:37:02;14.47;;;11.67;;
10166;SDS011;62970;53.130;8.244;2023-03-01T02:39:39;17.60;;;12.03;;
10166;SDS011;62970;53.130;8.244;2023-03-01T02:42:14;14.50;;;11.27;;
10166;SDS011;62970;53.130;8.244;2023-03-01T02:44:51;14.17;;;11.53;;
10166;SDS011;62970;53.130;8.244;2023-03-01T02:47:21;14.97;;;11.93;;
10166;SDS011;62970;53.130;8.244;2023-03-01T02:49:50;13.70;;;11.83;;
10166;SDS011;62970;53.130;8.244;2023-03-01T02:55:15;16.33;;;11.93;;
10166;SDS011;62970;53.130;8.244;2023-03-01T02:57:46;13.90;;;11.30;;
10166;SDS011;62970;53.130;8.244;2023-03-01T03:00:21;13.23;;;11.33;;
10166;SDS011;62970;53.130;8.244;2023-03-01T03:02:54;14.17;;;11.73;;
10166;SDS011;62970;53.130;8.244;2023-03-01T03:05:26;14.73;;;11.60;;
10166;SDS011;62970;53.130;8.244;2023-03-01T03:08:00;14.63;;;11.87;;
10166;SDS011;62970;53.130;8.244;2023-03-01T03:10:34;14.73;;;11.83;;
10166;SDS011;62970;53.130;8.244;2023-03-01T03:13:06;15.87;;;11.77;;
10166;SDS011;62970;53.130;8.244;2023-03-01T03:15:39;16.87;;;12.20;;
10166;SDS011;62970;53.130;8.244;2023-03-01T03:18:12;15.30;;;12.20;;
10166;SDS011;62970;53.130;8.244;2023-03-01T03:20:44;13.77;;;12.33;;
10166;SDS011;62970;53.130;8.244;2023-03-01T03:23:17;14.43;;;11.57;;
10166;SDS011;62970;53.130;8.244;2023-03-01T03:25:48;16.43;;;11.97;;
10166;SDS011;62970;53.130;8.244;2023-03-01T03:28:18;14.10;;;11.77;;
10166;SDS011;62970;53.130;8.244;2023-03-01T03:30:50;15.80;;;12.43;;
10166;SDS011;62970;53.130;8.244;2023-03-01T03:33:20;14.70;;;11.47;;
10166;SDS011;62970;53.130;8.244;2023-03-01T03:35:49;17.80;;;12.53;;
10166;SDS011;62970;53.130;8.244;2023-03-01T03:38:19;13.10;;;11.47;;
10166;SDS011;62970;53.130;8.244;2023-03-01T03:40:49;15.73;;;11.13;;
10166;SDS011;62970;53.130;8.244;2023-03-01T03:43:22;13.67;;;11.47;;
10166;SDS011;62970;53.130;8.244;2023-03-01T03:45:54;14.87;;;12.60;;
10166;SDS011;62970;53.130;8.244;2023-03-01T03:48:25;16.73;;;12.00;;
10166;SDS011;62970;53.130;8.244;2023-03-01T03:50:55;15.40;;;11.93;;
10166;SDS011;62970;53.130;8.244;2023-03-01T03:53:25;13.90;;;11.20;;
10166;SDS011;62970;53.130;8.244;2023-03-01T03:55:56;14.83;;;11.47;;
10166;SDS011;62970;53.130;8.244;2023-03-01T03:58:26;16.33;;;12.00;;
10166;SDS011;62970;53.130;8.244;2023-03-01T04:00:58;15.17;;;11.37;;
10166;SDS011;62970;53.130;8.244;2023-03-01T04:03:28;14.20;;;11.87;;
10166;SDS011;62970;53.130;8.244;2023-03-01T04:06:00;14.57;;;12.00;;
10166;SDS011;62970;53.130;8.244;2023-03-01T04:08:31;14.90;;;11.70;;
10166;SDS011;62970;53.130;8.244;2023-03-01T04:11:01;16.00;;;12.33;;
10166;SDS011;62970;53.130;8.244;2023-03-01T04:13:44;15.23;;;12.27;;
10166;SDS011;62970;53.130;8.244;2023-03-01T04:16:16;15.30;;;12.83;;
10166;SDS011;62970;53.130;8.244;2023-03-01T04:18:46;13.93;;;11.73;;
10166;SDS011;62970;53.130;8.244;2023-03-01T04:21:15;14.33;;;11.53;;
10166;SDS011;62970;53.130;8.244;2023-03-01T04:23:45;16.17;;;12.00;;
10166;SDS011;62970;53.130;8.244;2023-03-01T04:26:17;13.93;;;11.13;;
10166;SDS011;62970;53.130;8.244;2023-03-01T04:28:47;14.23;;;11.67;;
10166;SDS011;62970;53.130;8.244;2023-03-01T04:31:19;15.30;;;11.93;;
10166;SDS011;62970;53.130;8.244;2023-03-01T04:33:49;15.83;;;11.93;;
10166;SDS011;62970;53.130;8.244;2023-03-01T04:36:21;17.37;;;12.03;;
10166;SDS011;62970;53.130;8.244;2023-03-01T04:38:52;15.10;;;11.90;;
10166;SDS011;62970;53.130;8.244;2023-03-01T04:41:23;15.77;;;12.50;;
10166;SDS011;62970;53.130;8.244;2023-03-01T04:43:53;16.67;;;12.43;;
10166;SDS011;62970;53.130;8.244;2023-03-01T04:46:27;15.17;;;12.17;;
10166;SDS011;62970;53.130;8.244;2023-03-01T04:48:57;14.83;;;11.50;;
10166;SDS011;62970;53.130;8.244;2023-03-01T04:51:26;15.13;;;12.83;;
10166;SDS011;62970;53.130;8.244;2023-03-01T04:53:57;15.37;;;12.70;;
10166;SDS011;62970;53.130;8.244;2023-03-01T04:56:26;17.33;;;12.83;;
10166;SDS011;62970;53.130;8.244;2023-03-01T04:58:56;15.77;;;12.00;;
10166;SDS011;62970;53.130;8.244;2023-03-01T05:01:28;15.47;;;12.63;;
10166;SDS011;62970;53.130;8.244;2023-03-01T05:03:57;15.47;;;12.70;;
10166;SDS011;62970;53.130;8.244;2023-03-01T05:06:30;13.20;;;11.20;;
10166;SDS011;62970;53.130;8.244;2023-03-01T05:09:00;15.33;;;12.03;;
10166;SDS011;62970;53.130;8.244;2023-03-01T05:11:30;15.30;;;12.30;;
10166;SDS011;62970;53.130;8.244;2023-03-01T05:14:01;16.07;;;12.20;;
10166;SDS011;62970;53.130;8.244;2023-03-01T05:16:32;14.83;;;11.47;;
10166;SDS011;62970;53.130;8.244;2023-03-01T05:19:03;17.90;;;13.10;;
10166;SDS011;62970;53.130;8.244;2023-03-01T05:21:36;15.77;;;12.40;;
10166;SDS011;62970;53.130;8.244;2023-03-01T05:24:26;15.33;;;11.83;;
10166;SDS011;62970;53.130;8.244;2023-03-01T05:26:57;14.27;;;11.70;;
10166;SDS011;62970;53.130;8.244;2023-03-01T05:29:27;16.80;;;13.03;;
10166;SDS011;62970;53.130;8.244;2023-03-01T05:32:02;15.70;;;12.60;;
10166;SDS011;62970;53.130;8.244;2023-03-01T05:34:34;16.63;;;12.83;;
10166;SDS011;62970;53.130;8.244;2023-03-01T05:37:04;15.50;;;12.70;;
10166;SDS011;62970;53.130;8.244;2023-03-01T05:39:33;15.57;;;12.03;;
10166;SDS011;62970;53.130;8.244;2023-03-01T05:42:03;19.07;;;13.37;;
10166;SDS011;62970;53.130;8.244;2023-03-01T05:44:33;16.73;;;13.10;;
10166;SDS011;62970;53.130;8.244;2023-03-01T05:47:05;20.27;;;13.30;;
10166;SDS011;62970;53.130;8.244;2023-03-01T05:49:34;15.97;;;13.23;;
10166;SDS011;62970;53.130;8.244;2023-03-01T05:52:04;15.60;;;12.83;;
10166;SDS011;62970;53.130;8.244;2023-03-01T05:54:33;16.27;;;12.73;;
10166;SDS011;62970;53.130;8.244;2023-03-01T05:57:03;16.17;;;12.37;;
10166;SDS011;62970;53.130;8.244;2023-03-01T05:59:33;16.77;;;12.70;;
10166;SDS011;62970;53.130;8.244;2023-03-01T06:02:05;15.87;;;12.53;;
10166;SDS011;62970;53.130;8.244;2023-03-01T06:04:34;18.83;;;14.60;;
10166;SDS011;62970;53.130;8.244;2023-03-01T06:07:03;18.57;;;13.97;;
10166;SDS011;62970;53.130;8.244;2023-03-01T06:09:32;23.57;;;15.53;;
10166;SDS011;62970;53.130;8.244;2023-03-01T06:12:02;19.47;;;14.83;;
10166;SDS011;62970;53.130;8.244;2023-03-01T06:14:32;18.70;;;14.30;;
10166;SDS011;62970;53.130;8.244;2023-03-01T06:17:01;18.97;;;15.10;;
10166;SDS011;62970;53.130;8.244;2023-03-01T06:19:33;21.97;;;15.53;;
10166;SDS011;62970;53.130;8.244;2023-03-01T06:22:05;20.17;;;16.10;;
10166;SDS011;62970;53.130;8.244;2023-03-01T06:24:34;17.40;;;13.80;;
10166;SDS011;62970;53.130;8.244;2023-03-01T06:27:04;18.63;;;14.30;;
10166;SDS011;62970;53.130;8.244;2023-03-01T06:29:33;18.40;;;13.23;;
10166;SDS011;62970;53.130;8.244;2023-03-01T06:32:05;17.10;;;14.37;;
10166;SDS011;62970;53.130;8.244;2023-03-01T06:34:37;20.87;;;14.33;;
10166;SDS011;62970;53.130;8.244;2023-03-01T06:37:06;20.33;;;15.13;;
10166;SDS011;62970;53.130;8.244;2023-03-01T06:39:36;18.70;;;14.17;;
10166;SDS011;62970;53.130;8.244;2023-03-01T06:42:05;18.73;;;14.23;;
10166;SDS011;62970;53.130;8.244;2023-03-01T06:44:36;19.20;;;13.77;;
10166;SDS011;62970;53.130;8.244;2023-03-01T06:47:09;22.93;;;13.90;;
10166;SDS011;62970;53.130;8.244;2023-03-01T06:49:38;18.10;;;14.07;;
10166;SDS011;62970;53.130;8.244;2023-03-01T06:52:09;18.37;;;14.43;;
10166;SDS011;62970;53.130;8.244;2023-03-01T06:54:38;17.97;;;13.80;;
10166;SDS011;62970;53.130;8.244;2023-03-01T06:57:08;18.20;;;13.07;;
10166;SDS011;62970;53.130;8.244;2023-03-01T06:59:37;18.73;;;13.73;;
10166;SDS011;62970;53.130;8.244;2023-03-01T07:02:11;24.07;;;16.53;;
10166;SDS011;62970;53.130;8.244;2023-03-01T07:04:41;23.03;;;16.90;;
10166;SDS011;62970;53.130;8.244;2023-03-01T07:07:11;23.17;;;15.90;;
10166;SDS011;62970;53.130;8.244;2023-03-01T07:09:40;25.87;;;18.17;;
10166;SDS011;62970;53.130;8.244;2023-03-01T07:12:10;34.93;;;22.83;;
10166;SDS011;62970;53.130;8.244;2023-03-01T07:14:39;39.43;;;26.30;;
10166;SDS011;62970;53.130;8.244;2023-03-01T07:17:11;33.50;;;22.77;;
10166;SDS011;62970;53.130;8.244;2023-03-01T07:19:41;27.77;;;18.77;;
10166;SDS011;62970;53.130;8.244;2023-03-01T07:22:10;20.90;;;16.40;;
10166;SDS011;62970;53.130;8.244;2023-03-01T07:24:42;23.63;;;17.00;;
10166;SDS011;62970;53.130;8.244;2023-03-01T07:27:14;17.63;;;14.87;;
10166;SDS011;62970;53.130;8.244;2023-03-01T07:29:43;17.73;;;14.30;;
10166;SDS011;62970;53.130;8.244;2023-03-01T07:32:15;22.93;;;15.87;;
10166;SDS011;62970;53.130;8.244;2023-03-01T07:34:44;22.27;;;15.63;;
10166;SDS011;62970;53.130;8.244;2023-03-01T07:37:16;22.47;;;15.17;;
10166;SDS011;62970;53.130;8.244;2023-03-01T07:39:47;20.53;;;14.57;;
10166;SDS011;62970;53.130;8.244;2023-03-01T07:42:17;19.90;;;14.97;;
10166;SDS011;62970;53.130;8.244;2023-03-01T07:44:46;16.63;;;13.00;;
10166;SDS011;62970;53.130;8.244;2023-03-01T07:47:18;15.67;;;12.60;;
10166;SDS011;62970;53.130;8.244;2023-03-01T07:49:47;16.60;;;13.10;;
10166;SDS011;62970;53.130;8.244;2023-03-01T07:52:16;13.90;;;12.00;;
10166;SDS011;62970;53.130;8.244;2023-03-01T07:54:46;14.93;;;12.40;;
10166;SDS011;62970;53.130;8.244;2023-03-01T09:17:10;7.50;;;6.40;;
10166;SDS011;62970;53.130;8.244;2023-03-01T09:19:39;7.60;;;6.80;;
10166;SDS011;62970;53.130;8.244;2023-03-01T09:22:08;9.30;;;8.03;;
10166;SDS011;62970;53.130;8.244;2023-03-01T09:24:38;11.47;;;9.70;;
10166;SDS011;62970;53.130;8.244;2023-03-01T09:27:07;11.50;;;9.90;;
10166;SDS011;62970;53.130;8.244;2023-03-01T09:29:38;13.27;;;9.60;;
10166;SDS011;62970;53.130;8.244;2023-03-01T09:32:10;10.67;;;9.37;;
10166;SDS011;62970;53.130;8.244;2023-03-01T09:34:40;10.37;;;8.73;;
10166;SDS011;62970;53.130;8.244;2023-03-01T09:37:21;9.43;;;8.43;;
10166;SDS011;62970;53.130;8.244;2023-03-01T09:39:51;11.23;;;9.33;;
10166;SDS011;62970;53.130;8.244;2023-03-01T09:42:20;10.00;;;8.43;;
10166;SDS011;62970;53.130;8.244;2023-03-01T09:44:51;9.43;;;8.17;;
10166;SDS011;62970;53.130;8.244;2023-03-01T09:47:29;9.03;;;7.93;;
10166;SDS011;62970;53.130;8.244;2023-03-01T09:50:06;9.33;;;8.13;;
10166;SDS011;62970;53.130;8.244;2023-03-01T09:52:46;9.83;;;8.30;;
10166;SDS011;62970;53.130;8.244;2023-03-01T09:55:20;9.17;;;7.93;;
10166;SDS011;62970;53.130;8.244;2023-03-01T09:57:58;8.80;;;7.90;;
10166;SDS011;62970;53.130;8.244;2023-03-01T10:00:46;9.13;;;7.63;;
10166;SDS011;62970;53.130;8.244;2023-03-01T10:03:21;7.67;;;6.67;;
10166;SDS011;62970;53.130;8.244;2023-03-01T10:05:57;9.63;;;7.07;;
10166;SDS011;62970;53.130;8.244;2023-03-01T10:08:34;6.73;;;5.40;;
10166;SDS011;62970;53.130;8.244;2023-03-01T10:11:16;6.37;;;5.17;;
10166;SDS011;62970;53.130;8.244;2023-03-01T10:13:51;5.30;;;4.80;;
10166;SDS011;62970;53.130;8.244;2023-03-01T10:16:33;5.50;;;4.13;;
10166;SDS011;62970;53.130;8.244;2023-03-01T10:19:11;4.67;;;3.90;;
10166;SDS011;62970;53.130;8.244;2023-03-01T10:21:45;4.33;;;3.93;;
10166;SDS011;62970;53.130;8.244;2023-03-01T10:24:16;3.80;;;3.40;;
10166;SDS011;62970;53.130;8.244;2023-03-01T10:26:54;5.47;;;4.30;;
10166;SDS011;62970;53.130;8.244;2023-03-01T10:29:26;4.57;;;3.80;;
10166;SDS011;62970;53.130;8.244;2023-03-01T10:32:02;4.90;;;3.80;;
10166;SDS011;62970;53.130;8.244;2023-03-01T10:34:35;3.90;;;3.23;;
10166;SDS011;62970;53.130;8.244;2023-03-01T10:37:09;4.13;;;3.37;;
10166;SDS011;62970;53.130;8.244;2023-03-01T10:39:56;3.30;;;3.00;;
10166;SDS011;62970;53.130;8.244;2023-03-01T10:42:31;3.50;;;3.20;;
10166;SDS011;62970;53.130;8.244;2023-03-01T10:45:32;4.47;;;3.97;;
10166;SDS011;62970;53.130;8.244;2023-03-01T10:48:05;5.20;;;4.50;;
10166;SDS011;62970;53.130;8.244;2023-03-01T10:50:45;5.20;;;4.70;;
10166;SDS011;62970;53.130;8.244;2023-03-01T10:53:23;6.07;;;4.83;;
10166;SDS011;62970;53.130;8.244;2023-03-01T10:55:59;5.67;;;4.80;;
10166;SDS011;62970;53.130;8.244;2023-03-01T10:58:32;5.60;;;4.70;;
10166;SDS011;62970;53.130;8.244;2023-03-01T11:01:03;6.73;;;5.60;;
10166;SDS011;62970;53.130;8.244;2023-03-01T11:03:35;6.20;;;5.50;;
10166;SDS011;62970;53.130;8.244;2023-03-01T11:06:19;6.83;;;6.17;;
10166;SDS011;62970;53.130;8.244;2023-03-01T11:08:51;8.10;;;6.70;;
10166;SDS011;62970;53.130;8.244;2023-03-01T11:11:25;7.67;;;6.87;;
10166;SDS011;62970;53.130;8.244;2023-03-01T11:14:00;7.30;;;6.60;;
10166;SDS011;62970;53.130;8.244;2023-03-01T11:16:35;9.40;;;7.70;;
10166;SDS011;62970;53.130;8.244;2023-03-01T11:19:17;8.93;;;7.80;;
10166;SDS011;62970;53.130;8.244;2023-03-01T11:22:03;9.80;;;8.80;;
10166;SDS011;62970;53.130;8.244;2023-03-01T11:24:38;10.87;;;8.53;;
10166;SDS011;62970;53.130;8.244;2023-03-01T11:27:15;9.47;;;8.13;;
10166;SDS011;62970;53.130;8.244;2023-03-01T11:29:51;9.07;;;8.17;;
10166;SDS011;62970;53.130;8.244;2023-03-01T11:32:25;9.77;;;8.77;;
10166;SDS011;62970;53.130;8.244;2023-03-01T11:35:00;9.33;;;8.33;;
10166;SDS011;62970;53.130;8.244;2023-03-01T11:37:41;9.87;;;8.87;;
10166;SDS011;62970;53.130;8.244;2023-03-01T11:40:22;10.57;;;9.47;;
10166;SDS011;62970;53.130;8.244;2023-03-01T11:43:01;11.60;;;10.40;;
10166;SDS011;62970;53.130;8.244;2023-03-01T11:45:43;12.00;;;10.23;;
10166;SDS011;62970;53.130;8.244;2023-03-01T11:48:32;11.23;;;10.03;;
10166;SDS011;62970;53.130;8.244;2023-03-01T11:51:18;11.90;;;9.87;;
10166;SDS011;62970;53.130;8.244;2023-03-01T11:54:09;10.60;;;9.60;;
10166;SDS011;62970;53.130;8.244;2023-03-01T11:56:53;10.90;;;9.80;;
10166;SDS011;62970;53.130;8.244;2023-03-01T11:59:44;11.57;;;10.47;;
10166;SDS011;62970;53.130;8.244;2023-03-01T12:02:40;11.90;;;10.70;;
10166;SDS011;62970;53.130;8.244;2023-03-01T12:05:49;10.77;;;9.67;;
10166;SDS011;62970;53.130;8.244;2023-03-01T12:08:55;10.30;;;9.23;;
10166;SDS011;62970;53.130;8.244;2023-03-01T12:11:55;10.60;;;9.53;;
10166;SDS011;62970;53.130;8.244;2023-03-01T12:14:59;11.53;;;10.33;;
10166;SDS011;62970;53.130;8.244;2023-03-01T12:17:57;10.70;;;9.60;;
10166;SDS011;62970;53.130;8.244;2023-03-01T12:21:05;12.37;;;10.50;;
10166;SDS011;62970;53.130;8.244;2023-03-01T12:23:58;12.10;;;10.80;;
10166;SDS011;62970;53.130;8.244;2023-03-01T12:26:50;12.10;;;10.70;;
10166;SDS011;62970;53.130;8.244;2023-03-01T12:29:34;12.37;;;10.80;;
10166;SDS011;62970;53.130;8.244;2023-03-01T12:32:22;11.47;;;10.27;;
10166;SDS011;62970;53.130;8.244;2023-03-01T12:35:20;13.57;;;10.47;;
10166;SDS011;62970;53.130;8.244;2023-03-01T12:38:32;12.00;;;10.73;;
10166;SDS011;62970;53.130;8.244;2023-03-01T12:41:11;11.53;;;10.33;;
10166;SDS011;62970;53.130;8.244;2023-03-01T12:47:28;11.70;;;10.50;;
10166;SDS011;62970;53.130;8.244;2023-03-01T12:50:18;12.43;;;10.83;;
10166;SDS011;62970;53.130;8.244;2023-03-01T12:52:52;13.27;;;11.20;;
10166;SDS011;62970;53.130;8.244;2023-03-01T12:55:26;13.27;;;11.83;;
10166;SDS011;62970;53.130;8.244;2023-03-01T12:58:07;12.77;;;11.43;;
10166;SDS011;62970;53.130;8.244;2023-03-01T13:00:57;13.27;;;11.80;;
10166;SDS011;62970;53.130;8.244;2023-03-01T13:03:43;12.00;;;10.70;;
10166;SDS011;62970;53.130;8.244;2023-03-01T13:06:32;14.47;;;11.33;;
10166;SDS011;62970;53.130;8.244;2023-03-01T13:09:11;12.33;;;10.73;;
10166;SDS011;62970;53.130;8.244;2023-03-01T13:11:55;12.93;;;11.57;;
10166;SDS011;62970;53.130;8.244;2023-03-01T13:14:35;12.97;;;11.67;;
10166;SDS011;62970;53.130;8.244;2023-03-01T13:20:15;12.13;;;10.93;;
10166;SDS011;62970;53.130;8.244;2023-03-01T13:22:47;13.17;;;11.00;;
10166;SDS011;62970;53.130;8.244;2023-03-01T13:25:28;12.97;;;11.23;;
10166;SDS011;62970;53.130;8.244;2023-03-01T13:31:08;12.63;;;11.33;;
10166;SDS011;62970;53.130;8.244;2023-03-01T13:33:44;14.93;;;13.23;;
10166;SDS011;62970;53.130;8.244;2023-03-01T13:39:27;13.90;;;12.50;;
10166;SDS011;62970;53.130;8.244;2023-03-01T13:42:00;14.83;;;13.23;;
10166;SDS011;62970;53.130;8.244;2023-03-01T13:44:30;15.40;;;12.83;;
10166;SDS011;62970;53.130;8.244;2023-03-01T13:47:07;14.30;;;12.77;;
10166;SDS011;62970;53.130;8.244;2023-03-01T13:49:50;16.60;;;13.97;;
10166;SDS011;62970;53.130;8.244;2023-03-01T13:52:33;17.50;;;15.47;;
10166;SDS011;62970;53.130;8.244;2023-03-01T13:55:14;16.73;;;13.87;;
10166;SDS011;62970;53.130;8.244;2023-03-01T13:57:48;14.33;;;12.93;;
10166;SDS011;62970;53.130;8.244;2023-03-01T14:00:26;13.63;;;12.23;;
10166;SDS011;62970;53.130;8.244;2023-03-01T14:03:00;14.67;;;13.10;;
10166;SDS011;62970;53.130;8.244;2023-03-01T14:05:35;14.93;;;13.33;;
10166;SDS011;62970;53.130;8.244;2023-03-01T14:08:05;14.37;;;12.87;;
10166;SDS011;62970;53.130;8.244;2023-03-01T14:10:51;14.23;;;12.73;;
10166;SDS011;62970;53.130;8.244;2023-03-01T14:13:53;12.57;;;11.27;;
10166;SDS011;62970;53.130;8.244;2023-03-01T14:16:38;13.70;;;12.23;;
10166;SDS011;62970;53.130;8.244;2023-03-01T14:19:18;13.83;;;12.33;;
10166;SDS011;62970;53.130;8.244;2023-03-01T14:22:01;14.53;;;13.03;;
10166;SDS011;62970;53.130;8.244;2023-03-01T14:24:48;14.13;;;12.63;;
10166;SDS011;62970;53.130;8.244;2023-03-01T14:27:20;15.27;;;12.33;;
10166;SDS011;62970;53.130;8.244;2023-03-01T14:29:55;13.63;;;12.23;;
10166;SDS011;62970;53.130;8.244;2023-03-01T14:32:27;13.93;;;12.43;;
10166;SDS011;62970;53.130;8.244;2023-03-01T14:34:58;14.30;;;12.90;;
10166;SDS011;62970;53.130;8.244;2023-03-01T14:37:32;13.33;;;11.93;;
10166;SDS011;62970;53.130;8.244;2023-03-01T14:40:04;14.17;;;12.43;;
10166;SDS011;62970;53.130;8.244;2023-03-01T14:42:47;13.23;;;11.93;;
10166;SDS011;62970;53.130;8.244;2023-03-01T14:45:17;13.77;;;12.07;;
10166;SDS011;62970;53.130;8.244;2023-03-01T14:47:47;14.30;;;12.90;;
10166;SDS011;62970;53.130;8.244;2023-03-01T14:50:19;13.87;;;12.20;;
10166;SDS011;62970;53.130;8.244;2023-03-01T14:52:56;13.53;;;12.20;;
10166;SDS011;62970;53.130;8.244;2023-03-01T14:55:44;14.77;;;13.27;;
10166;SDS011;62970;53.130;8.244;2023-03-01T14:58:18;14.03;;;12.53;;
10166;SDS011;62970;53.130;8.244;2023-03-01T15:00:52;14.50;;;12.93;;
10166;SDS011;62970;53.130;8.244;2023-03-01T15:03:25;14.37;;;12.87;;
10166;SDS011;62970;53.130;8.244;2023-03-01T15:06:02;15.53;;;13.80;;
10166;SDS011;62970;53.130;8.244;2023-03-01T15:08:36;14.97;;;13.37;;
10166;SDS011;62970;53.130;8.244;2023-03-01T15:11:17;16.90;;;14.10;;
10166;SDS011;62970;53.130;8.244;2023-03-01T15:13:50;16.70;;;14.90;;
10166;SDS011;62970;53.130;8.244;2023-03-01T15:16:21;16.70;;;14.93;;
10166;SDS011;62970;53.130;8.244;2023-03-01T15:18:54;17.50;;;15.07;;
10166;SDS011;62970;53.130;8.244;2023-03-01T15:21:26;16.50;;;14.77;;
10166;SDS011;62970;53.130;8.244;2023-03-01T15:24:05;16.03;;;14.43;;
10166;SDS011;62970;53.130;8.244;2023-03-01T15:26:50;17.90;;;16.03;;
10166;SDS011;62970;53.130;8.244;2023-03-01T15:29:23;23.63;;;17.80;;
10166;SDS011;62970;53.130;8.244;2023-03-01T15:31:56;18.83;;;16.23;;
10166;SDS011;62970;53.130;8.244;2023-03-01T15:34:30;19.63;;;16.87;;
10166;SDS011;62970;53.130;8.244;2023-03-01T15:37:02;18.97;;;16.33;;
10166;SDS011;62970;53.130;8.244;2023-03-01T15:39:37;18.93;;;16.87;;
10166;SDS011;62970;53.130;8.244;2023-03-01T15:42:10;20.00;;;16.77;;
10166;SDS011;62970;53.130;8.244;2023-03-01T15:44:41;18.20;;;16.30;;
10166;SDS011;62970;53.130;8.244;2023-03-01T15:47:24;18.47;;;16.47;;
10166;SDS011;62970;53.130;8.244;2023-03-01T15:49:57;17.47;;;15.60;;
10166;SDS011;62970;53.130;8.244;2023-03-01T15:52:29;17.87;;;16.07;;
10166;SDS011;62970;53.130;8.244;2023-03-01T15:55:15;19.40;;;16.57;;
10166;SDS011;62970;53.130;8.244;2023-03-01T15:57:46;17.87;;;15.97;;
10166;SDS011;62970;53.130;8.244;2023-03-01T16:00:17;17.80;;;15.97;;
10166;SDS011;62970;53.130;8.244;2023-03-01T16:02:48;16.90;;;15.10;;
10166;SDS011;62970;53.130;8.244;2023-03-01T16:05:19;17.70;;;15.90;;
10166;SDS011;62970;53.130;8.244;2023-03-01T16:07:52;18.03;;;16.07;;
10166;SDS011;62970;53.130;8.244;2023-03-01T16:10:25;18.17;;;16.27;;
10166;SDS011;62970;53.130;8.244;2023-03-01T16:12:55;17.57;;;15.30;;
10166;SDS011;62970;53.130;8.244;2023-03-01T16:15:27;16.63;;;14.83;;
10166;SDS011;62970;53.130;8.244;2023-03-01T16:17:59;17.47;;;15.67;;
10166;SDS011;62970;53.130;8.244;2023-03-01T16:20:30;20.20;;;16.37;;
10166;SDS011;62970;53.130;8.244;2023-03-01T16:23:00;18.03;;;15.97;;
10166;SDS011;62970;53.130;8.244;2023-03-01T16:25:35;16.90;;;15.07;;
10166;SDS011;62970;53.130;8.244;2023-03-01T16:28:04;17.67;;;15.37;;
10166;SDS011;62970;53.130;8.244;2023-03-01T16:30:36;17.93;;;16.13;;
10166;SDS011;62970;53.130;8.244;2023-03-01T16:33:08;17.83;;;15.97;;
10166;SDS011;62970;53.130;8.244;2023-03-01T16:35:39;18.27;;;16.37;;
10166;SDS011;62970;53.130;8.244;2023-03-01T16:41:31;17.87;;;15.60;;
10166;SDS011;62970;53.130;8.244;2023-03-01T16:44:49;18.17;;;15.63;;
10166;SDS011;62970;53.130;8.244;2023-03-01T16:48:18;16.97;;;15.07;;
10166;SDS011;62970;53.130;8.244;2023-03-01T16:51:08;19.37;;;17.27;;